createdAt,value
2022-11-26T00:08:51.477Z,7.30
2022-11-26T00:22:51.626Z,6.80
2022-11-26T00:36:52.026Z,6.40
2022-11-26T00:50:51.968Z,6.20
2022-11-26T01:04:51.975Z,5.60
2022-11-26T01:18:52.062Z,5.50
2022-11-26T01:32:51.997Z,4.90
2022-11-26T01:46:52.125Z,4.50
2022-11-26T02:00:52.467Z,4.60
2022-11-26T02:14:52.760Z,3.90
2022-11-26T02:28:52.708Z,3.80
2022-11-26T02:42:52.771Z,3.80
2022-11-26T02:56:52.811Z,3.60
2022-11-26T03:10:52.812Z,3.20
2022-11-26T03:24:52.833Z,3.00
2022-11-26T03:38:52.858Z,2.60
2022-11-26T03:52:53.079Z,2.60
2022-11-26T04:06:52.946Z,2.50
2022-11-26T04:20:53.553Z,2.25
2022-11-26T04:34:52.994Z,1.95
2022-11-26T04:48:53.035Z,2.10
2022-11-26T05:02:53.118Z,1.90
2022-11-26T05:16:53.141Z,1.70
2022-11-26T05:30:53.366Z,1.70
2022-11-26T05:44:53.961Z,1.60
2022-11-26T05:58:54.129Z,1.50
2022-11-26T06:12:54.148Z,1.90
2022-11-26T06:27:54.191Z,2.30
2022-11-26T06:42:54.170Z,2.30
2022-11-26T06:57:54.404Z,4.00
2022-11-26T07:12:54.422Z,4.40
2022-11-26T07:27:54.475Z,5.00
2022-11-26T07:42:54.625Z,4.40
2022-11-26T07:57:54.625Z,4.80
2022-11-26T08:12:54.839Z,4.30
2022-11-26T08:27:54.838Z,4.40
2022-11-26T08:42:54.817Z,4.20
2022-11-26T08:57:54.838Z,4.10
2022-11-26T09:12:54.828Z,6.20
2022-11-26T09:27:54.879Z,5.40
2022-11-26T09:42:54.884Z,4.50
2022-11-26T09:57:54.871Z,4.30
2022-11-26T10:13:17.146Z,3.70
2022-11-26T10:27:54.899Z,3.25
2022-11-26T10:42:54.958Z,3.20
2022-11-26T10:57:54.904Z,2.90
2022-11-26T11:12:54.969Z,2.90
2022-11-26T11:27:54.937Z,2.70
2022-11-26T11:42:55.022Z,2.80
2022-11-26T11:57:55.028Z,2.40
2022-11-26T12:12:55.045Z,2.50
2022-11-26T12:27:55.039Z,2.25
2022-11-26T12:42:55.076Z,2.00
2022-11-26T12:57:55.139Z,3.90
2022-11-26T13:12:55.245Z,3.60
2022-11-26T13:27:55.141Z,3.60
2022-11-26T13:42:55.139Z,4.10
2022-11-26T13:57:55.230Z,3.90
2022-11-26T14:13:55.210Z,11.30
2022-11-26T14:28:55.252Z,9.10
2022-11-26T14:43:55.380Z,8.50
2022-11-26T14:58:55.430Z,6.90
2022-11-26T15:13:55.439Z,6.50
2022-11-26T15:28:55.493Z,5.70
2022-11-26T15:43:55.540Z,4.95
2022-11-26T15:59:55.590Z,4.60
2022-11-26T16:14:55.582Z,4.20
2022-11-26T16:28:55.600Z,3.90
2022-11-26T16:42:55.616Z,3.80
2022-11-26T16:56:56.114Z,3.70
2022-11-26T17:10:55.675Z,3.50
2022-11-26T17:24:55.700Z,3.30
2022-11-26T17:39:55.700Z,3.70
2022-11-26T17:54:55.791Z,3.80
2022-11-26T18:08:55.795Z,3.50
2022-11-26T18:22:55.830Z,3.90
2022-11-26T18:36:55.792Z,3.70
2022-11-26T18:50:55.765Z,5.40
2022-11-26T19:04:55.797Z,7.40
2022-11-26T19:18:55.855Z,12.90
2022-11-26T19:32:55.883Z,16.00
2022-11-26T19:46:55.933Z,18.60
2022-11-26T20:00:56.033Z,20.10
2022-11-26T20:14:55.961Z,19.90
2022-11-26T20:28:56.028Z,19.30
2022-11-26T20:42:56.109Z,18.00
2022-11-26T20:56:56.324Z,16.10
2022-11-26T21:10:56.381Z,15.70
2022-11-26T21:24:56.401Z,15.00
2022-11-26T21:38:56.446Z,13.90
2022-11-26T21:52:56.557Z,15.20
2022-11-26T22:06:56.637Z,15.20
2022-11-26T22:20:56.872Z,14.20
2022-11-26T22:34:56.943Z,13.40
2022-11-26T22:48:57.068Z,12.80
2022-11-26T23:02:57.353Z,12.10
2022-11-26T23:16:57.210Z,11.90
2022-11-26T23:30:57.300Z,12.00
2022-11-26T23:44:57.318Z,10.50
2022-11-26T23:58:57.317Z,10.30
